MSC Marianna — H0AE — position and weather

sailwx.info

Track history (hours):
 
Tides and Currents Weather Stations Pressure Air Temp Water Temp Dewpoint Dewpoint Depression Visibility Wind Speed Wind Dir Waves Ship Positions

MSC Marianna

Last reported at 2018-Feb-23 06:30 UTC. Time now 2018-Feb-23 06:38 UTC.
Position N 26°05' W 079°60'.

Length 304 m; draft 12.5 m.

Type: Ship. MMSI: 352335000.

Date/timePositionNaut miles runAvg speedWind from/ knotsBaromVisibWave heightAir tempDewpointWater temp
2018-Feb-23 06:30N 26°05' W 079°60'4 7.5
2018-Feb-23 06:00N 26°06' W 079°56'4 7.0
2018-Feb-23 05:30N 26°07' W 079°52'4 7.2
2018-Feb-23 05:00N 26°09' W 079°48'4 6.9
2018-Feb-23 04:30N 26°10' W 079°44'3 6.7
2018-Feb-23 04:00N 26°11' W 079°41'4 6.9
2018-Feb-23 03:30N 26°12' W 079°37'3 7.0
2018-Feb-23 03:00N 26°14' W 079°34'3 6.9
2018-Feb-23 02:30N 26°15' W 079°30'3 6.5
2018-Feb-23 02:00N 26°16' W 079°27'3 6.5
2018-Feb-23 01:30N 26°17' W 079°24'3 6.8
2018-Feb-23 01:00N 26°19' W 079°20'  
2018-Feb-16 03:59N 38°02' W 030°15'919.4
2018-Feb-16 03:30N 38°02' W 030°03'1019.2
2018-Feb-16 03:01N 38°03' W 029°51'1019.5
2018-Feb-16 02:30N 38°03' W 029°38'1019.6
2018-Feb-16 02:00N 38°04' W 029°26'1019.4
2018-Feb-16 01:30N 38°04' W 029°13'1019.6
2018-Feb-16 01:00N 38°04' W 029°01'1019.2
2018-Feb-16 00:31N 38°05' W 028°49'1019.4
2018-Feb-16 00:00N 38°05' W 028°37'1019.7
2018-Feb-15 23:30N 38°06' W 028°24'1019.8
2018-Feb-15 23:00N 38°06' W 028°11'1020.4
2018-Feb-15 22:30N 38°06' W 027°59'1020.7
2018-Feb-15 22:00N 38°06' W 027°45'1020.6
2018-Feb-15 21:30N 38°07' W 027°32'1020.2
2018-Feb-15 21:00N 38°07' W 027°20'1020.4
2018-Feb-15 20:30N 38°07' W 027°07'1020.0
2018-Feb-15 20:00N 38°07' W 026°54'1020.1
2018-Feb-15 19:30N 38°08' W 026°41'1020.0
2018-Feb-15 19:00N 38°08' W 026°28'1019.9
2018-Feb-15 18:30N 38°07' W 026°16'1019.8
2018-Feb-15 18:00N 38°08' W 026°03'1019.1
2018-Feb-15 17:30N 38°08' W 025°51'1019.4
2018-Feb-15 17:00N 38°08' W 025°39'1019.4
2018-Feb-15 16:31N 38°07' W 025°26'1019.1
2018-Feb-15 16:00N 38°07' W 025°14'1019.4
2018-Feb-15 15:31N 38°07' W 025°02'1019.2
2018-Feb-15 15:00N 38°07' W 024°50'1019.0
2018-Feb-15 14:30N 38°07' W 024°38'918.8
2018-Feb-15 14:01N 38°06' W 024°26'1019.1
2018-Feb-15 13:30N 38°06' W 024°14'1019.1
2018-Feb-15 13:00N 38°06' W 024°01'1019.2
2018-Feb-15 12:30N 38°06' W 023°49'3119.1
2018-Feb-15 10:54N 38°05' W 023°10'57219.0
2018-Feb-14 04:50N 37°56' W 011°05'6519.1
2018-Feb-14 01:25N 37°55' W 009°42'818.8
2018-Feb-14 01:00N 37°55' W 009°32'919.1
2018-Feb-14 00:30N 37°55' W 009°20'1019.6
2018-Feb-14 00:00N 37°54' W 009°07'1019.3
2018-Feb-13 23:30N 37°53' W 008°55'4 8.8
2018-Feb-13 23:00N 37°56' W 008°51'0 0.1
2018-Feb-13 22:28N 37°56' W 008°51'0 0.0
2018-Feb-13 21:55N 37°56' W 008°51'0 0.0
2018-Feb-13 21:28N 37°56' W 008°51'0 0.0
2018-Feb-13 20:58N 37°56' W 008°51'0 0.0
2018-Feb-13 20:28N 37°56' W 008°51'0 0.0
2018-Feb-13 19:58N 37°56' W 008°51'0 0.0
2018-Feb-13 19:28N 37°56' W 008°51'0 0.0
2018-Feb-13 18:58N 37°56' W 008°51'0 0.0
2018-Feb-13 18:28N 37°56' W 008°51'0 0.0
2018-Feb-13 17:58N 37°56' W 008°51'0 0.0
2018-Feb-13 17:28N 37°56' W 008°51'0 0.0
2018-Feb-13 16:58N 37°56' W 008°51'0 0.0
2018-Feb-13 16:28N 37°56' W 008°51'0 0.0
2018-Feb-13 15:58N 37°56' W 008°51'0 0.0
2018-Feb-13 15:28N 37°56' W 008°51'0 0.0
2018-Feb-13 14:58N 37°56' W 008°51'0 0.0
2018-Feb-13 14:28N 37°56' W 008°51'0 0.0
2018-Feb-13 13:58N 37°56' W 008°51'0 0.0
2018-Feb-13 13:28N 37°56' W 008°51'0 0.0
2018-Feb-13 12:58N 37°56' W 008°51'0 0.0
2018-Feb-13 12:28N 37°56' W 008°51'0 0.0
2018-Feb-13 11:58N 37°56' W 008°51'0 0.0
2018-Feb-13 11:28N 37°56' W 008°51'0 0.0
2018-Feb-13 10:58N 37°56' W 008°51'0 0.0
2018-Feb-13 10:28N 37°56' W 008°51'0 0.0
2018-Feb-13 09:58N 37°56' W 008°51'0 0.0
2018-Feb-13 09:28N 37°56' W 008°51'0 0.0
2018-Feb-13 08:58N 37°56' W 008°51'0 0.0
2018-Feb-13 08:28N 37°56' W 008°51'0 0.1
2018-Feb-13 08:00N 37°56' W 008°51'1 1.9
2018-Feb-13 07:30N 37°55' W 008°50'3 5.9
2018-Feb-13 07:00N 37°52' W 008°51'  
Track history (hours):
 
Tides and Currents Weather Stations Pressure Air Temp Water Temp Dewpoint Dewpoint Depression Visibility Wind Speed Wind Dir Waves Ship Positions

MSC Marianna

Last reported at 2018-Feb-23 06:30 UTC. Time now 2018-Feb-23 06:38 UTC.
Position N 26°05' W 079°60'.

Length 304 m; draft 12.5 m.

Type: Ship. MMSI: 352335000.

Date/timePositionNaut miles runAvg speedWind from/ knotsBaromVisibWave heightAir tempDewpointWater temp
2018-Feb-23 06:30N 26°05' W 079°60'4 7.5
2018-Feb-23 06:00N 26°06' W 079°56'4 7.0
2018-Feb-23 05:30N 26°07' W 079°52'4 7.2
2018-Feb-23 05:00N 26°09' W 079°48'4 6.9
2018-Feb-23 04:30N 26°10' W 079°44'3 6.7
2018-Feb-23 04:00N 26°11' W 079°41'4 6.9
2018-Feb-23 03:30N 26°12' W 079°37'3 7.0
2018-Feb-23 03:00N 26°14' W 079°34'3 6.9
2018-Feb-23 02:30N 26°15' W 079°30'3 6.5
2018-Feb-23 02:00N 26°16' W 079°27'3 6.5
2018-Feb-23 01:30N 26°17' W 079°24'3 6.8
2018-Feb-23 01:00N 26°19' W 079°20'  
2018-Feb-16 03:59N 38°02' W 030°15'919.4
2018-Feb-16 03:30N 38°02' W 030°03'1019.2
2018-Feb-16 03:01N 38°03' W 029°51'1019.5
2018-Feb-16 02:30N 38°03' W 029°38'1019.6
2018-Feb-16 02:00N 38°04' W 029°26'1019.4
2018-Feb-16 01:30N 38°04' W 029°13'1019.6
2018-Feb-16 01:00N 38°04' W 029°01'1019.2
2018-Feb-16 00:31N 38°05' W 028°49'1019.4
2018-Feb-16 00:00N 38°05' W 028°37'1019.7
2018-Feb-15 23:30N 38°06' W 028°24'1019.8
2018-Feb-15 23:00N 38°06' W 028°11'1020.4
2018-Feb-15 22:30N 38°06' W 027°59'1020.7
2018-Feb-15 22:00N 38°06' W 027°45'1020.6
2018-Feb-15 21:30N 38°07' W 027°32'1020.2
2018-Feb-15 21:00N 38°07' W 027°20'1020.4
2018-Feb-15 20:30N 38°07' W 027°07'1020.0
2018-Feb-15 20:00N 38°07' W 026°54'1020.1
2018-Feb-15 19:30N 38°08' W 026°41'1020.0
2018-Feb-15 19:00N 38°08' W 026°28'1019.9
2018-Feb-15 18:30N 38°07' W 026°16'1019.8
2018-Feb-15 18:00N 38°08' W 026°03'1019.1
2018-Feb-15 17:30N 38°08' W 025°51'1019.4
2018-Feb-15 17:00N 38°08' W 025°39'1019.4
2018-Feb-15 16:31N 38°07' W 025°26'1019.1
2018-Feb-15 16:00N 38°07' W 025°14'1019.4
2018-Feb-15 15:31N 38°07' W 025°02'1019.2
2018-Feb-15 15:00N 38°07' W 024°50'1019.0
2018-Feb-15 14:30N 38°07' W 024°38'918.8
2018-Feb-15 14:01N 38°06' W 024°26'1019.1
2018-Feb-15 13:30N 38°06' W 024°14'1019.1
2018-Feb-15 13:00N 38°06' W 024°01'1019.2
2018-Feb-15 12:30N 38°06' W 023°49'3119.1
2018-Feb-15 10:54N 38°05' W 023°10'57219.0
2018-Feb-14 04:50N 37°56' W 011°05'6519.1
2018-Feb-14 01:25N 37°55' W 009°42'818.8
2018-Feb-14 01:00N 37°55' W 009°32'919.1
2018-Feb-14 00:30N 37°55' W 009°20'1019.6
2018-Feb-14 00:00N 37°54' W 009°07'1019.3
2018-Feb-13 23:30N 37°53' W 008°55'4 8.8
2018-Feb-13 23:00N 37°56' W 008°51'0 0.1
2018-Feb-13 22:28N 37°56' W 008°51'0 0.0
2018-Feb-13 21:55N 37°56' W 008°51'0 0.0
2018-Feb-13 21:28N 37°56' W 008°51'0 0.0
2018-Feb-13 20:58N 37°56' W 008°51'0 0.0
2018-Feb-13 20:28N 37°56' W 008°51'0 0.0
2018-Feb-13 19:58N 37°56' W 008°51'0 0.0
2018-Feb-13 19:28N 37°56' W 008°51'0 0.0
2018-Feb-13 18:58N 37°56' W 008°51'0 0.0
2018-Feb-13 18:28N 37°56' W 008°51'0 0.0
2018-Feb-13 17:58N 37°56' W 008°51'0 0.0
2018-Feb-13 17:28N 37°56' W 008°51'0 0.0
2018-Feb-13 16:58N 37°56' W 008°51'0 0.0
2018-Feb-13 16:28N 37°56' W 008°51'0 0.0
2018-Feb-13 15:58N 37°56' W 008°51'0 0.0
2018-Feb-13 15:28N 37°56' W 008°51'0 0.0
2018-Feb-13 14:58N 37°56' W 008°51'0 0.0
2018-Feb-13 14:28N 37°56' W 008°51'0 0.0
2018-Feb-13 13:58N 37°56' W 008°51'0 0.0
2018-Feb-13 13:28N 37°56' W 008°51'0 0.0
2018-Feb-13 12:58N 37°56' W 008°51'0 0.0
2018-Feb-13 12:28N 37°56' W 008°51'0 0.0
2018-Feb-13 11:58N 37°56' W 008°51'0 0.0
2018-Feb-13 11:28N 37°56' W 008°51'0 0.0
2018-Feb-13 10:58N 37°56' W 008°51'0 0.0
2018-Feb-13 10:28N 37°56' W 008°51'0 0.0
2018-Feb-13 09:58N 37°56' W 008°51'0 0.0
2018-Feb-13 09:28N 37°56' W 008°51'0 0.0
2018-Feb-13 08:58N 37°56' W 008°51'0 0.0
2018-Feb-13 08:28N 37°56' W 008°51'0 0.1
2018-Feb-13 08:00N 37°56' W 008°51'1 1.9
2018-Feb-13 07:30N 37°55' W 008°50'3 5.9
2018-Feb-13 07:00N 37°52' W 008°51'  

Dump ship's entire track history